createdAt,value
2019-04-21T00:01:52.145Z,64.10
2019-04-21T00:04:48.308Z,64.70
2019-04-21T00:07:37.870Z,64.90
2019-04-21T00:10:18.489Z,65.00
2019-04-21T00:13:08.068Z,65.50
2019-04-21T00:21:51.132Z,65.10
2019-04-21T00:24:46.142Z,65.10
2019-04-21T00:27:34.025Z,65.30
2019-04-21T00:30:30.330Z,65.50
2019-04-21T00:33:00.202Z,65.40
2019-04-21T00:35:46.493Z,65.40
2019-04-21T00:38:51.369Z,65.50
2019-04-21T00:41:30.798Z,66.00
2019-04-21T00:44:06.526Z,65.90
2019-04-21T00:46:58.364Z,66.10
2019-04-21T00:49:43.221Z,66.50
2019-04-21T00:53:05.657Z,66.90
2019-04-21T00:58:53.712Z,67.30
2019-04-21T01:01:42.636Z,67.50
2019-04-21T01:04:23.579Z,67.60
2019-04-21T01:07:18.037Z,67.60
2019-04-21T01:09:48.555Z,67.70
2019-04-21T01:12:43.007Z,68.40
2019-04-21T01:15:35.193Z,68.70
2019-04-21T01:18:16.522Z,68.80
2019-04-21T01:20:37.874Z,68.90
2019-04-21T01:23:21.655Z,68.90
2019-04-21T01:26:17.775Z,69.10
2019-04-21T01:29:05.387Z,69.30
2019-04-21T01:31:57.316Z,69.40
2019-04-21T01:34:45.138Z,69.80
2019-04-21T01:37:34.412Z,69.80
2019-04-21T01:40:25.921Z,70.10
2019-04-21T01:43:04.941Z,70.20
2019-04-21T01:45:49.396Z,70.40
2019-04-21T01:48:33.260Z,70.70
2019-04-21T01:51:18.738Z,70.90
2019-04-21T01:54:48.247Z,71.40
2019-04-21T01:57:59.394Z,72.20
2019-04-21T02:03:52.883Z,72.40
2019-04-21T02:06:33.766Z,72.80
2019-04-21T02:09:14.880Z,73.00
2019-04-21T02:12:08.799Z,73.00
2019-04-21T02:14:45.761Z,73.40
2019-04-21T02:17:23.343Z,74.20
2019-04-21T02:20:08.933Z,73.60
2019-04-21T02:23:12.786Z,73.60
2019-04-21T02:25:47.129Z,73.50
2019-04-21T02:28:40.404Z,74.20
2019-04-21T02:31:29.155Z,74.30
2019-04-21T02:34:09.148Z,74.30
2019-04-21T02:37:14.369Z,74.50
2019-04-21T02:42:31.520Z,75.00
2019-04-21T02:45:19.088Z,74.90
2019-04-21T02:50:47.607Z,75.40
2019-04-21T02:53:45.807Z,75.90
2019-04-21T02:56:18.071Z,76.40
2019-04-21T03:02:36.820Z,76.60
2019-04-21T03:08:28.057Z,77.00
2019-04-21T03:13:57.357Z,77.10
2019-04-21T03:16:47.127Z,77.20
2019-04-21T03:19:28.909Z,77.60
2019-04-21T03:22:18.242Z,77.80
2019-04-21T03:30:44.985Z,78.80
2019-04-21T03:38:43.032Z,79.80
2019-04-21T03:41:31.697Z,79.90
2019-04-21T03:44:16.982Z,80.00
2019-04-21T03:47:04.432Z,80.30
2019-04-21T03:49:47.368Z,80.20
2019-04-21T03:58:41.545Z,81.60
2019-04-21T04:01:41.107Z,82.10
2019-04-21T04:04:40.593Z,82.10
2019-04-21T04:07:42.462Z,82.40
2019-04-21T04:10:24.502Z,82.60
2019-04-21T04:13:04.627Z,82.50
2019-04-21T04:18:51.179Z,83.70
2019-04-21T04:21:30.825Z,84.00
2019-04-21T04:24:22.270Z,84.60
2019-04-21T04:26:57.441Z,84.70
2019-04-21T04:29:42.312Z,84.80
2019-04-21T04:32:28.623Z,84.70
2019-04-21T04:35:40.531Z,84.80
2019-04-21T04:38:03.671Z,85.40
2019-04-21T04:41:16.249Z,85.40
2019-04-21T04:44:11.181Z,85.20
2019-04-21T04:47:01.871Z,87.00
2019-04-21T05:03:40.175Z,87.10
2019-04-21T05:06:42.091Z,87.10
2019-04-21T05:09:31.592Z,86.90
2019-04-21T05:12:11.617Z,86.80
2019-04-21T05:15:07.788Z,86.10
2019-04-21T05:20:29.880Z,86.20
2019-04-21T05:23:11.942Z,86.70
2019-04-21T05:25:51.142Z,87.60
2019-04-21T05:28:32.884Z,87.80
2019-04-21T05:31:58.489Z,88.20
2019-04-21T05:40:39.912Z,89.70
2019-04-21T05:43:32.441Z,88.80
2019-04-21T05:46:21.648Z,87.60
2019-04-21T05:49:05.050Z,86.70
2019-04-21T05:51:58.333Z,87.40
2019-04-21T05:54:56.996Z,88.60
2019-04-21T05:57:33.448Z,89.90
2019-04-21T06:00:23.550Z,89.80
2019-04-21T06:03:09.859Z,88.50
2019-04-21T06:06:07.286Z,89.40
2019-04-21T06:08:53.982Z,89.30
2019-04-21T06:11:28.813Z,90.10
2019-04-21T06:14:14.346Z,88.70
2019-04-21T06:17:08.077Z,88.60
2019-04-21T06:20:01.890Z,88.10
2019-04-21T06:22:46.768Z,86.30
2019-04-21T06:25:49.579Z,86.80
2019-04-21T06:28:22.379Z,85.20
2019-04-21T06:31:19.971Z,83.50
2019-04-21T06:33:48.780Z,83.60
2019-04-21T06:42:21.171Z,79.00
2019-04-21T06:45:13.033Z,76.00
2019-04-21T06:48:02.825Z,75.60
2019-04-21T06:50:51.066Z,72.20
2019-04-21T06:53:40.356Z,73.50
2019-04-21T06:56:13.890Z,76.40
2019-04-21T06:59:01.344Z,72.70
2019-04-21T07:01:48.786Z,71.40
2019-04-21T07:04:50.116Z,69.50
2019-04-21T07:07:17.183Z,68.10
2019-04-21T07:10:10.689Z,67.40
2019-04-21T07:12:44.917Z,66.30
2019-04-21T07:15:41.928Z,66.20
2019-04-21T07:18:19.150Z,64.50
2019-04-21T07:21:06.139Z,65.60
2019-04-21T07:23:59.406Z,64.00
2019-04-21T07:26:47.711Z,63.20
2019-04-21T07:29:28.893Z,60.30
2019-04-21T07:32:09.341Z,60.50
2019-04-21T07:35:00.151Z,60.00
2019-04-21T07:37:41.063Z,59.80
2019-04-21T07:40:24.271Z,58.50
2019-04-21T07:43:12.124Z,58.30
2019-04-21T07:45:56.918Z,56.90
2019-04-21T07:48:58.752Z,56.50
2019-04-21T07:55:06.232Z,56.30
2019-04-21T07:57:39.426Z,56.90
2019-04-21T08:03:28.254Z,55.40
2019-04-21T08:06:18.912Z,55.20
2019-04-21T08:09:00.953Z,55.00
2019-04-21T08:11:41.636Z,54.00
2019-04-21T08:14:42.875Z,54.90
2019-04-21T08:17:16.493Z,54.00
2019-04-21T08:20:00.273Z,54.70
2019-04-21T08:22:51.088Z,55.70
2019-04-21T08:25:40.342Z,53.80
2019-04-21T08:28:19.176Z,53.60
2019-04-21T08:31:07.967Z,53.40
2019-04-21T08:33:55.407Z,51.70
2019-04-21T08:36:40.502Z,52.20
2019-04-21T08:39:30.245Z,51.90
2019-04-21T08:42:15.540Z,51.10
2019-04-21T08:45:02.097Z,50.70
2019-04-21T08:47:47.770Z,50.90
2019-04-21T08:50:31.267Z,49.50
2019-04-21T08:53:14.433Z,50.20
2019-04-21T08:56:27.717Z,49.30
2019-04-21T09:05:45.076Z,46.70
2019-04-21T09:08:25.120Z,45.40
2019-04-21T09:11:14.933Z,44.20
2019-04-21T09:16:41.132Z,42.40
2019-04-21T09:19:38.543Z,42.20
2019-04-21T09:22:10.917Z,42.50
2019-04-21T09:24:55.731Z,42.20
2019-04-21T09:27:41.933Z,41.40
2019-04-21T09:30:13.457Z,41.90
2019-04-21T09:33:00.083Z,40.50
2019-04-21T09:35:49.162Z,40.20
2019-04-21T09:38:37.076Z,39.30
2019-04-21T09:41:18.957Z,40.00
2019-04-21T09:44:03.013Z,36.80
2019-04-21T09:46:54.013Z,36.40
2019-04-21T09:49:37.214Z,36.70
2019-04-21T09:52:25.585Z,34.60
2019-04-21T09:55:15.266Z,36.60
2019-04-21T09:57:57.203Z,36.00
2019-04-21T10:00:31.285Z,37.00
2019-04-21T10:03:23.065Z,36.00
2019-04-21T10:06:07.013Z,36.00
2019-04-21T10:09:01.149Z,35.20
2019-04-21T10:11:37.615Z,33.30
2019-04-21T10:14:22.023Z,34.40
2019-04-21T10:17:25.312Z,34.00
2019-04-21T10:20:11.610Z,33.30
2019-04-21T10:23:01.128Z,33.10
2019-04-21T10:25:46.365Z,33.50
2019-04-21T10:28:35.109Z,33.80
2019-04-21T10:31:32.378Z,32.80
2019-04-21T10:34:17.010Z,33.30
2019-04-21T10:37:02.762Z,33.60
2019-04-21T10:39:47.515Z,33.80
2019-04-21T10:42:33.127Z,31.50
2019-04-21T10:45:17.330Z,33.90
2019-04-21T10:48:03.053Z,33.50
2019-04-21T10:50:35.387Z,33.60
2019-04-21T10:53:23.071Z,33.50
2019-04-21T10:56:15.423Z,33.70
2019-04-21T10:58:54.138Z,33.60
2019-04-21T11:01:41.070Z,32.50
2019-04-21T11:04:33.646Z,33.20
2019-04-21T11:07:52.161Z,33.70
2019-04-21T11:10:34.043Z,33.30
2019-04-21T11:13:18.924Z,35.20
2019-04-21T11:16:03.487Z,34.20
2019-04-21T11:18:48.709Z,33.80
2019-04-21T11:21:34.618Z,33.90
2019-04-21T11:24:20.794Z,33.00
2019-04-21T11:27:06.737Z,32.80
2019-04-21T11:29:51.688Z,32.40
2019-04-21T11:32:35.481Z,32.10
2019-04-21T11:35:19.394Z,31.90
2019-04-21T11:38:14.430Z,33.60
2019-04-21T11:40:40.023Z,33.90
2019-04-21T11:43:24.717Z,34.30
2019-04-21T11:46:08.757Z,32.40
2019-04-21T11:48:52.768Z,32.90
2019-04-21T11:51:37.527Z,33.80
2019-04-21T11:54:22.566Z,32.00
2019-04-21T11:57:12.394Z,30.90
2019-04-21T11:59:53.570Z,30.60
2019-04-21T12:02:37.970Z,29.90
2019-04-21T12:05:23.317Z,32.10
2019-04-21T12:08:18.957Z,33.30
2019-04-21T12:10:53.497Z,31.60
2019-04-21T12:13:38.197Z,32.70
2019-04-21T12:16:23.490Z,31.40
2019-04-21T12:19:08.936Z,31.80
2019-04-21T12:22:05.000Z,32.80
2019-04-21T12:24:39.696Z,33.30
2019-04-21T12:27:25.443Z,33.40
2019-04-21T12:30:11.414Z,34.80
2019-04-21T12:33:02.110Z,35.10
2019-04-21T12:35:55.736Z,34.80
2019-04-21T12:38:46.913Z,36.40
2019-04-21T12:41:26.696Z,36.70
2019-04-21T12:44:11.183Z,36.00
2019-04-21T12:46:56.345Z,36.00
2019-04-21T12:49:41.496Z,34.30
2019-04-21T12:52:27.248Z,34.00
2019-04-21T12:55:11.504Z,33.80
2019-04-21T12:57:45.460Z,35.90
2019-04-21T13:00:31.208Z,35.80
2019-04-21T13:03:17.389Z,35.50
2019-04-21T13:06:05.904Z,36.10
2019-04-21T13:09:01.477Z,36.70
2019-04-21T13:11:51.001Z,35.00
2019-04-21T13:14:35.824Z,35.00
2019-04-21T13:17:21.465Z,33.70
2019-04-21T13:19:54.240Z,34.20
2019-04-21T13:22:37.958Z,34.10
2019-04-21T13:25:21.634Z,34.20
2019-04-21T13:28:07.051Z,33.50
2019-04-21T13:30:51.776Z,33.60
2019-04-21T13:33:38.271Z,34.00
2019-04-21T13:36:27.631Z,33.60
2019-04-21T13:42:39.421Z,33.30
2019-04-21T13:45:18.312Z,33.40
2019-04-21T13:48:02.366Z,34.60
2019-04-21T13:50:47.235Z,33.00
2019-04-21T13:53:33.046Z,32.70
2019-04-21T13:56:18.456Z,31.90
2019-04-21T13:59:02.393Z,32.40
2019-04-21T14:01:35.944Z,33.20
2019-04-21T14:04:31.510Z,32.70
2019-04-21T14:13:12.138Z,33.80
2019-04-21T14:15:56.266Z,35.10
2019-04-21T14:18:40.754Z,34.30
2019-04-21T14:21:25.637Z,33.30
2019-04-21T14:24:10.860Z,32.70
2019-04-21T14:26:58.380Z,32.70
2019-04-21T14:29:43.858Z,33.00
2019-04-21T14:32:29.515Z,32.60
2019-04-21T14:35:14.794Z,32.80
2019-04-21T14:38:00.276Z,32.50
2019-04-21T14:40:44.944Z,32.70
2019-04-21T14:43:30.270Z,32.80
2019-04-21T14:49:24.643Z,34.30
2019-04-21T14:52:16.850Z,34.40
2019-04-21T14:55:20.911Z,32.90
2019-04-21T14:58:19.141Z,33.00
2019-04-21T15:01:10.769Z,33.10
2019-04-21T15:03:55.498Z,32.90
2019-04-21T15:06:41.261Z,32.40
2019-04-21T15:09:25.325Z,32.90
2019-04-21T15:12:11.931Z,33.70
2019-04-21T15:14:56.354Z,33.50
2019-04-21T15:17:40.206Z,33.40
2019-04-21T15:20:26.888Z,36.00
2019-04-21T15:23:12.338Z,33.60
2019-04-21T15:25:56.572Z,34.40
2019-04-21T15:28:42.480Z,32.30
2019-04-21T15:31:25.703Z,31.90
2019-04-21T15:34:15.022Z,32.00
2019-04-21T15:36:59.894Z,30.50
2019-04-21T15:39:46.807Z,31.00
2019-04-21T15:42:30.795Z,30.70
2019-04-21T15:45:16.849Z,31.80
2019-04-21T15:48:00.637Z,30.80
2019-04-21T15:50:44.186Z,31.00
2019-04-21T15:59:48.508Z,29.70
2019-04-21T16:02:46.739Z,29.90
2019-04-21T16:05:32.892Z,30.90
2019-04-21T16:08:18.222Z,30.80
2019-04-21T16:11:04.610Z,30.40
2019-04-21T16:13:48.127Z,29.70
2019-04-21T16:16:33.823Z,29.80
2019-04-21T16:19:18.455Z,30.50
2019-04-21T16:22:04.675Z,30.00
2019-04-21T16:24:50.525Z,30.90
2019-04-21T16:27:35.194Z,32.20
2019-04-21T16:30:21.568Z,31.60
2019-04-21T16:33:06.324Z,31.40
2019-04-21T16:35:51.774Z,31.20
2019-04-21T16:38:37.584Z,29.80
2019-04-21T16:41:29.411Z,30.10
2019-04-21T16:44:13.857Z,29.30
2019-04-21T16:47:01.358Z,30.50
2019-04-21T16:49:47.500Z,31.00
2019-04-21T16:52:36.431Z,29.70
2019-04-21T16:55:41.454Z,29.80
2019-04-21T16:58:30.930Z,29.00
2019-04-21T17:01:34.253Z,28.90
2019-04-21T17:04:20.263Z,28.90
2019-04-21T17:07:05.199Z,29.80
2019-04-21T17:09:50.659Z,29.10
2019-04-21T17:12:37.363Z,28.90
2019-04-21T17:15:35.581Z,29.50
2019-04-21T17:18:29.916Z,29.80
2019-04-21T17:20:59.704Z,30.10
2019-04-21T17:23:40.720Z,30.00
2019-04-21T17:26:27.087Z,29.90
2019-04-21T17:29:12.251Z,31.10
2019-04-21T17:31:57.357Z,31.10
2019-04-21T17:34:43.800Z,31.70
2019-04-21T17:37:29.195Z,32.20
2019-04-21T17:40:24.071Z,32.50
2019-04-21T17:43:13.870Z,32.50
2019-04-21T17:45:55.198Z,32.50
2019-04-21T17:48:40.626Z,32.90
2019-04-21T17:51:54.600Z,33.30
2019-04-21T17:54:54.745Z,33.00
2019-04-21T17:57:57.741Z,32.80
2019-04-21T18:01:06.127Z,33.20
2019-04-21T18:03:53.570Z,33.40
2019-04-21T18:06:14.286Z,33.80
2019-04-21T18:09:21.897Z,34.00
2019-04-21T18:12:03.379Z,34.10
2019-04-21T18:14:32.737Z,34.90
2019-04-21T18:17:18.327Z,35.50
2019-04-21T18:20:04.114Z,35.90
2019-04-21T18:23:20.868Z,36.00
2019-04-21T18:26:01.984Z,36.10
2019-04-21T18:28:40.849Z,36.50
2019-04-21T18:31:27.033Z,37.20
2019-04-21T18:34:34.172Z,37.20
2019-04-21T18:37:42.754Z,37.40
2019-04-21T18:40:49.071Z,38.40
2019-04-21T18:43:56.725Z,39.70
2019-04-21T18:47:14.737Z,41.40
2019-04-21T18:49:56.206Z,42.30
2019-04-21T18:53:03.320Z,45.10
2019-04-21T18:55:48.221Z,46.90
2019-04-21T18:58:30.803Z,47.90
2019-04-21T19:01:20.726Z,48.40
2019-04-21T19:04:05.358Z,50.50
2019-04-21T19:07:02.670Z,51.00
2019-04-21T19:10:03.602Z,51.50
2019-04-21T19:13:09.181Z,53.20
2019-04-21T19:15:30.027Z,52.10
2019-04-21T19:18:35.145Z,52.90
2019-04-21T19:21:08.208Z,53.30
2019-04-21T19:23:58.117Z,53.20
2019-04-21T19:26:49.178Z,53.90
2019-04-21T19:29:28.800Z,54.20
2019-04-21T19:32:14.869Z,54.00
2019-04-21T19:34:43.127Z,54.70
2019-04-21T19:37:29.775Z,54.30
2019-04-21T19:40:30.858Z,54.50
2019-04-21T19:43:07.856Z,54.20
2019-04-21T19:46:03.035Z,55.20
2019-04-21T19:48:55.278Z,55.30
2019-04-21T19:51:33.014Z,55.70
2019-04-21T19:54:13.324Z,55.70
2019-04-21T19:56:49.011Z,55.50
2019-04-21T19:59:41.772Z,55.60
2019-04-21T20:02:08.864Z,55.50
2019-04-21T20:05:10.680Z,55.50
2019-04-21T20:08:06.661Z,55.40
2019-04-21T20:10:55.496Z,55.40
2019-04-21T20:13:56.904Z,55.50
2019-04-21T20:16:30.982Z,55.50
2019-04-21T20:19:01.365Z,55.50
2019-04-21T20:21:41.068Z,55.70
2019-04-21T20:24:28.316Z,55.90
2019-04-21T20:27:19.399Z,56.20
2019-04-21T20:30:13.500Z,56.40
2019-04-21T20:33:05.977Z,56.60
2019-04-21T20:35:51.952Z,56.70
2019-04-21T20:38:28.314Z,56.90
2019-04-21T20:41:15.860Z,56.80
2019-04-21T20:44:09.861Z,56.40
2019-04-21T20:46:40.270Z,56.60
2019-04-21T20:49:40.417Z,56.50
2019-04-21T20:52:41.537Z,56.60
2019-04-21T20:55:26.461Z,57.00
2019-04-21T20:58:15.098Z,56.70
2019-04-21T21:01:32.994Z,57.00
2019-04-21T21:03:51.804Z,57.30
2019-04-21T21:06:54.409Z,57.00
2019-04-21T21:09:41.361Z,57.20
2019-04-21T21:15:04.151Z,57.30
2019-04-21T21:18:06.037Z,57.60
2019-04-21T21:20:49.394Z,57.40
2019-04-21T21:23:36.213Z,57.60
2019-04-21T21:26:21.939Z,57.70
2019-04-21T21:28:57.483Z,57.80
2019-04-21T21:32:04.248Z,57.70
2019-04-21T21:34:41.000Z,57.70
2019-04-21T21:40:12.247Z,57.80
2019-04-21T21:42:43.429Z,58.10
2019-04-21T21:45:17.936Z,58.00
2019-04-21T21:48:27.438Z,58.20
2019-04-21T21:51:05.876Z,58.30
2019-04-21T21:53:42.679Z,58.30
2019-04-21T21:56:32.280Z,58.50
2019-04-21T21:59:37.976Z,58.70
2019-04-21T22:02:29.328Z,58.90
2019-04-21T22:05:11.098Z,58.80
2019-04-21T22:07:52.214Z,59.00
2019-04-21T22:10:37.299Z,59.20
2019-04-21T22:13:31.295Z,59.30
2019-04-21T22:16:12.244Z,59.40
2019-04-21T22:19:21.922Z,59.60
2019-04-21T22:21:57.857Z,59.70
2019-04-21T22:24:41.521Z,60.10
2019-04-21T22:27:10.808Z,60.50
2019-04-21T22:29:59.383Z,60.30
2019-04-21T22:32:51.258Z,61.00
2019-04-21T22:35:34.439Z,60.90
2019-04-21T22:38:28.296Z,61.40
2019-04-21T22:41:11.978Z,61.50
2019-04-21T22:43:49.347Z,61.40
2019-04-21T22:46:30.632Z,61.70
2019-04-21T22:49:21.453Z,61.90
2019-04-21T22:52:20.957Z,62.20
2019-04-21T22:55:18.725Z,62.40
2019-04-21T22:58:02.048Z,62.60
2019-04-21T23:01:05.243Z,62.80
2019-04-21T23:04:05.203Z,63.70
2019-04-21T23:07:07.210Z,62.80
2019-04-21T23:09:47.607Z,63.20
2019-04-21T23:12:35.104Z,63.30
2019-04-21T23:15:23.129Z,63.60
2019-04-21T23:18:23.452Z,63.70
2019-04-21T23:21:06.164Z,63.90
2019-04-21T23:23:57.174Z,64.10
2019-04-21T23:26:42.062Z,64.70
2019-04-21T23:30:09.874Z,64.80
2019-04-21T23:32:30.414Z,64.80
2019-04-21T23:35:16.953Z,64.90
2019-04-21T23:37:52.935Z,65.10
2019-04-21T23:40:33.071Z,65.40
2019-04-21T23:43:23.862Z,65.40
2019-04-21T23:46:11.921Z,65.40
2019-04-21T23:48:56.220Z,66.40
2019-04-21T23:51:43.240Z,65.90
2019-04-21T23:54:19.561Z,66.10
2019-04-21T23:57:11.930Z,66.00
2019-04-21T23:59:55.398Z,66.50
